Time;durP1;ratioP1;P1;durP2;ratioP2;P2;SDS_P1;SDS_P2;PMS_P1;PMS_P2;Temp;Humidity;BMP_temperature;BMP_pressure;BME280_temperature;BME280_humidity;BME280_pressure;Samples;Min_cycle;Max_cycle;Signal;HPM_P1;HPM_P2
2022/05/15 00:01:53;;;;;;;4.72;2.33;;;;;;;;;;5033478;28;20500;-68
2022/05/15 00:04:19;;;;;;;4.68;2.95;;;;;;;;;;5033540;28;20517;-67
2022/05/15 00:06:46;;;;;;;4.50;2.85;;;;;;;;;;5033420;28;20049;-68
2022/05/15 00:09:13;;;;;;;3.63;2.80;;;;;;;;;;5033720;28;20054;-67
2022/05/15 00:11:39;;;;;;;4.63;3.08;;;;;;;;;;5033246;28;20049;-67
2022/05/15 00:14:06;;;;;;;4.72;3.13;;;;;;;;;;5032250;28;20064;-67
2022/05/15 00:16:33;;;;;;;3.88;2.75;;;;;;;;;;5033113;28;20049;-68
2022/05/15 00:19:00;;;;;;;4.65;3.30;;;;;;;;;;5033148;28;20049;-67
2022/05/15 00:21:26;;;;;;;6.03;3.70;;;;;;;;;;5032901;28;20080;-69
2022/05/15 00:23:53;;;;;;;7.88;3.47;;;;;;;;;;5033296;28;20057;-67
2022/05/15 00:26:19;;;;;;;4.90;2.95;;;;;;;;;;5033444;28;20119;-67
2022/05/15 00:28:46;;;;;;;5.43;3.25;;;;;;;;;;5033150;28;20179;-67
2022/05/15 00:31:13;;;;;;;7.95;3.45;;;;;;;;;;5032918;28;20042;-67
2022/05/15 00:33:40;;;;;;;5.15;3.20;;;;;;;;;;5032733;28;20046;-67
2022/05/15 00:36:06;;;;;;;3.97;2.80;;;;;;;;;;5031612;28;20049;-67
2022/05/15 00:38:33;;;;;;;6.00;2.90;;;;;;;;;;5033009;28;20049;-67
2022/05/15 00:41:01;;;;;;;7.32;2.92;;;;;;;;;;5032915;28;20049;-68
2022/05/15 00:43:45;;;;;;;4.18;3.22;;;;;;;;;;5032446;28;20053;-68
2022/05/15 00:46:24;;;;;;;6.20;3.40;;;;;;;;;;5032491;28;20151;-67
2022/05/15 00:48:51;;;;;;;9.98;3.28;;;;;;;;;;5032953;28;20053;-67
2022/05/15 00:51:43;;;;;;;4.43;3.22;;;;;;;;;;5032635;28;20120;-67
2022/05/15 00:54:24;;;;;;;6.47;3.35;;;;;;;;;;5032653;28;20054;-68
2022/05/15 00:57:28;;;;;;;4.93;3.00;;;;;;;;;;5032329;28;20092;-67
2022/05/15 01:00:03;;;;;;;6.45;3.30;;;;;;;;;;5027536;28;20042;-67
2022/05/15 01:02:33;;;;;;;7.65;3.55;;;;;;;;;;5032420;28;20428;-67
2022/05/15 01:04:59;;;;;;;8.10;3.10;;;;;;;;;;5047661;28;20085;-68
2022/05/15 01:07:26;;;;;;;3.72;2.92;;;;;;;;;;5047415;28;20057;-67
2022/05/15 01:09:53;;;;;;;4.40;3.00;;;;;;;;;;5032260;28;20484;-67
2022/05/15 01:12:20;;;;;;;5.22;3.10;;;;;;;;;;5032051;28;20053;-68
2022/05/15 01:14:47;;;;;;;4.95;3.05;;;;;;;;;;5030959;28;20099;-67
2022/05/15 01:17:14;;;;;;;4.78;3.33;;;;;;;;;;5047346;28;20050;-67
2022/05/15 01:19:42;;;;;;;5.72;2.90;;;;;;;;;;5031981;28;20367;-67
2022/05/15 01:22:11;;;;;;;4.93;3.60;;;;;;;;;;5032276;28;20113;-67
2022/05/15 01:24:38;;;;;;;7.93;3.28;;;;;;;;;;5031948;28;20057;-67
2022/05/15 01:27:08;;;;;;;4.80;2.70;;;;;;;;;;5031943;28;20091;-66
2022/05/15 01:29:40;;;;;;;5.25;2.88;;;;;;;;;;5031942;28;20115;-67
2022/05/15 01:32:07;;;;;;;3.65;2.78;;;;;;;;;;5030620;28;20085;-66
2022/05/15 01:34:34;;;;;;;4.03;2.58;;;;;;;;;;5031776;28;20053;-66
2022/05/15 01:37:01;;;;;;;3.47;3.10;;;;;;;;;;5032079;28;20049;-67
2022/05/15 01:39:28;;;;;;;5.57;3.08;;;;;;;;;;5031780;28;20052;-67
2022/05/15 01:41:55;;;;;;;5.78;3.10;;;;;;;;;;5031703;28;20511;-66
2022/05/15 01:44:22;;;;;;;4.18;2.72;;;;;;;;;;5031220;28;20049;-67
2022/05/15 01:46:49;;;;;;;4.47;2.90;;;;;;;;;;5030951;28;20522;-67
2022/05/15 01:49:16;;;;;;;3.92;3.05;;;;;;;;;;5031991;28;20053;-67
2022/05/15 01:51:43;;;;;;;4.65;2.97;;;;;;;;;;5031600;28;20053;-68
2022/05/15 01:54:10;;;;;;;5.32;3.70;;;;;;;;;;5030611;28;20056;-68
2022/05/15 01:56:37;;;;;;;3.92;3.15;;;;;;;;;;5031558;28;20053;-68
2022/05/15 01:59:04;;;;;;;3.72;3.03;;;;;;;;;;5031624;28;20053;-67
2022/05/15 02:01:31;;;;;;;4.30;3.20;;;;;;;;;;5031294;28;20053;-67
2022/05/15 02:03:58;;;;;;;3.55;2.90;;;;;;;;;;5031496;28;20063;-67
2022/05/15 02:06:24;;;;;;;5.47;3.40;;;;;;;;;;5031833;28;20057;-67
2022/05/15 02:08:51;;;;;;;5.13;3.58;;;;;;;;;;5031635;28;20403;-68
2022/05/15 02:11:18;;;;;;;6.07;3.72;;;;;;;;;;5031269;28;20554;-67
2022/05/15 02:13:44;;;;;;;4.97;3.30;;;;;;;;;;5031434;28;20045;-67
2022/05/15 02:16:11;;;;;;;3.83;3.20;;;;;;;;;;5031301;28;20053;-68
2022/05/15 02:18:38;;;;;;;4.43;3.25;;;;;;;;;;5031407;28;20479;-67
2022/05/15 02:21:04;;;;;;;3.70;2.90;;;;;;;;;;5031629;28;20499;-67
2022/05/15 02:23:31;;;;;;;5.95;3.63;;;;;;;;;;5031547;28;20104;-68
2022/05/15 02:25:58;;;;;;;4.70;3.20;;;;;;;;;;5031469;28;20049;-68
2022/05/15 02:28:26;;;;;;;3.72;3.00;;;;;;;;;;5031319;28;20054;-67
2022/05/15 02:30:53;;;;;;;4.93;3.00;;;;;;;;;;5031433;28;20045;-67
2022/05/15 02:33:20;;;;;;;6.85;3.40;;;;;;;;;;5031382;28;20053;-67
2022/05/15 02:35:47;;;;;;;4.88;3.67;;;;;;;;;;5031215;28;20496;-67
2022/05/15 02:38:13;;;;;;;8.13;3.58;;;;;;;;;;5031196;28;20056;-68
2022/05/15 02:40:40;;;;;;;6.45;4.00;;;;;;;;;;5031205;28;20463;-67
2022/05/15 02:43:07;;;;;;;5.43;3.10;;;;;;;;;;5030998;28;20049;-67
2022/05/15 02:45:33;;;;;;;3.17;2.85;;;;;;;;;;5030697;28;20053;-68
2022/05/15 02:48:00;;;;;;;6.82;3.15;;;;;;;;;;5031101;28;20056;-68
2022/05/15 02:53:12;;;;;;;3.65;3.33;;;;;;;;;;5031022;28;20559;-67
2022/05/15 02:55:39;;;;;;;6.20;2.90;;;;;;;;;;5031074;28;20046;-67
2022/05/15 02:58:06;;;;;;;7.05;3.25;;;;;;;;;;5033183;28;20516;-67
2022/05/15 03:00:32;;;;;;;6.00;3.28;;;;;;;;;;5034741;28;20045;-67
2022/05/15 03:02:59;;;;;;;6.53;3.88;;;;;;;;;;5034581;28;20514;-67
2022/05/15 03:05:28;;;;;;;5.65;3.15;;;;;;;;;;5034690;28;20124;-67
2022/05/15 03:07:55;;;;;;;4.15;3.47;;;;;;;;;;5034524;28;20045;-67
2022/05/15 03:10:22;;;;;;;5.57;2.85;;;;;;;;;;5034423;28;20053;-67
2022/05/15 03:12:49;;;;;;;5.32;3.20;;;;;;;;;;5034411;28;20428;-67
2022/05/15 03:15:16;;;;;;;5.25;3.33;;;;;;;;;;5034548;28;20479;-67
2022/05/15 03:17:43;;;;;;;6.80;3.38;;;;;;;;;;5034356;28;20045;-67
2022/05/15 03:20:11;;;;;;;4.18;3.40;;;;;;;;;;5034320;28;20427;-66
2022/05/15 03:22:38;;;;;;;7.95;4.07;;;;;;;;;;5034042;28;20100;-68
2022/05/15 03:25:06;;;;;;;4.63;3.13;;;;;;;;;;5034384;28;20065;-67
2022/05/15 03:27:32;;;;;;;4.90;3.22;;;;;;;;;;5034087;28;20057;-68
2022/05/15 03:29:59;;;;;;;5.28;3.03;;;;;;;;;;5034285;28;20493;-67
2022/05/15 03:32:26;;;;;;;5.70;2.85;;;;;;;;;;5034049;28;20050;-67
2022/05/15 03:34:52;;;;;;;5.50;3.00;;;;;;;;;;5034120;28;20396;-67
2022/05/15 03:37:19;;;;;;;3.63;3.00;;;;;;;;;;5033813;28;20050;-67
2022/05/15 03:39:45;;;;;;;5.30;3.67;;;;;;;;;;5033927;28;20053;-67
2022/05/15 03:42:12;;;;;;;3.45;3.15;;;;;;;;;;5034010;28;20454;-67
2022/05/15 03:44:38;;;;;;;6.10;3.70;;;;;;;;;;5033474;28;20447;-67
2022/05/15 03:47:05;;;;;;;5.05;2.90;;;;;;;;;;5066256;22;20386;-68
2022/05/15 03:49:32;;;;;;;3.45;2.75;;;;;;;;;;5033933;28;20061;-69
2022/05/15 03:51:59;;;;;;;6.90;3.55;;;;;;;;;;5033519;28;20492;-69
2022/05/15 03:54:25;;;;;;;4.05;3.03;;;;;;;;;;5033889;28;20046;-68
2022/05/15 03:56:52;;;;;;;6.55;3.63;;;;;;;;;;5033516;28;20080;-69
2022/05/15 03:59:25;;;;;;;4.03;2.92;;;;;;;;;;5033841;28;20060;-69
2022/05/15 04:01:51;;;;;;;4.18;2.75;;;;;;;;;;5033489;28;20099;-69
2022/05/15 04:04:18;;;;;;;5.35;2.92;;;;;;;;;;5033555;28;20053;-69
2022/05/15 04:06:45;;;;;;;5.82;3.00;;;;;;;;;;5033749;28;20045;-69
2022/05/15 04:09:12;;;;;;;3.83;3.35;;;;;;;;;;5032984;28;20099;-68
2022/05/15 04:11:39;;;;;;;8.90;3.35;;;;;;;;;;5033943;28;20091;-70
2022/05/15 04:14:06;;;;;;;5.13;3.08;;;;;;;;;;5032277;28;20586;-68
2022/05/15 04:16:33;;;;;;;6.30;3.58;;;;;;;;;;5033443;28;20056;-68
2022/05/15 04:19:01;;;;;;;3.33;2.95;;;;;;;;;;5033159;28;20560;-69
2022/05/15 04:21:30;;;;;;;4.22;2.92;;;;;;;;;;5032967;28;20045;-69
2022/05/15 04:23:56;;;;;;;4.70;3.00;;;;;;;;;;5033245;28;20504;-69
2022/05/15 04:26:23;;;;;;;4.30;3.00;;;;;;;;;;5033263;28;20096;-69
2022/05/15 04:28:50;;;;;;;4.32;2.95;;;;;;;;;;5033326;28;20616;-70
2022/05/15 04:31:16;;;;;;;3.80;2.92;;;;;;;;;;5033073;28;20046;-69
2022/05/15 04:33:44;;;;;;;6.95;3.10;;;;;;;;;;5033091;28;20053;-70
2022/05/15 04:36:10;;;;;;;6.90;3.33;;;;;;;;;;5033412;28;20045;-69
2022/05/15 04:38:37;;;;;;;7.10;2.95;;;;;;;;;;5033079;28;20068;-70
2022/05/15 04:41:03;;;;;;;3.55;2.97;;;;;;;;;;5032631;28;20104;-69
2022/05/15 04:43:30;;;;;;;5.13;3.33;;;;;;;;;;5032599;28;20053;-69
2022/05/15 04:45:57;;;;;;;8.60;3.10;;;;;;;;;;5032604;28;20053;-69
2022/05/15 04:48:23;;;;;;;6.00;3.58;;;;;;;;;;5032755;28;20049;-70
2022/05/15 04:50:50;;;;;;;6.18;3.10;;;;;;;;;;5031333;28;20041;-69
2022/05/15 04:53:21;;;;;;;6.38;3.35;;;;;;;;;;5032725;28;20197;-69
2022/05/15 04:55:48;;;;;;;6.13;3.22;;;;;;;;;;5033012;28;20080;-69
2022/05/15 04:58:15;;;;;;;3.35;2.92;;;;;;;;;;5033668;28;20064;-69
2022/05/15 05:00:43;;;;;;;5.55;2.97;;;;;;;;;;5033512;28;20049;-69
2022/05/15 05:03:10;;;;;;;4.22;2.70;;;;;;;;;;5032934;28;20128;-69
2022/05/15 05:05:36;;;;;;;4.47;3.25;;;;;;;;;;5032608;28;20059;-69
2022/05/15 05:08:05;;;;;;;5.53;3.40;;;;;;;;;;5032492;28;20049;-69
2022/05/15 05:10:34;;;;;;;6.38;3.38;;;;;;;;;;5032522;28;20053;-69
2022/05/15 05:13:00;;;;;;;4.10;3.30;;;;;;;;;;5030875;28;20107;-69
2022/05/15 05:15:27;;;;;;;5.65;3.60;;;;;;;;;;5032201;28;20459;-69
2022/05/15 05:17:54;;;;;;;3.97;2.88;;;;;;;;;;5032111;28;20053;-69
2022/05/15 05:20:21;;;;;;;5.47;3.00;;;;;;;;;;5031303;28;20500;-69
2022/05/15 05:22:47;;;;;;;4.80;3.10;;;;;;;;;;5032081;28;20049;-69
2022/05/15 05:25:14;;;;;;;4.93;3.15;;;;;;;;;;5032060;28;20050;-69
2022/05/15 05:27:41;;;;;;;4.38;3.22;;;;;;;;;;5032153;28;20519;-70
2022/05/15 05:30:17;;;;;;;7.25;3.50;;;;;;;;;;5032270;28;20049;-70
2022/05/15 05:32:44;;;;;;;3.53;3.08;;;;;;;;;;5032240;28;20049;-70
2022/05/15 05:35:12;;;;;;;3.08;2.70;;;;;;;;;;5031961;28;20049;-69
2022/05/15 05:37:39;;;;;;;5.57;2.88;;;;;;;;;;5031999;28;20103;-70
2022/05/15 05:40:07;;;;;;;3.72;3.05;;;;;;;;;;5031876;28;20462;-69
2022/05/15 05:42:33;;;;;;;4.97;2.90;;;;;;;;;;5031904;28;20041;-69
2022/05/15 05:45:02;;;;;;;6.57;3.15;;;;;;;;;;5031825;28;20566;-70
2022/05/15 05:47:30;;;;;;;4.93;3.05;;;;;;;;;;5031974;28;20053;-69
2022/05/15 05:49:57;;;;;;;3.55;3.25;;;;;;;;;;5031803;28;20451;-69
2022/05/15 05:52:24;;;;;;;2.97;2.67;;;;;;;;;;5031623;28;20045;-69
2022/05/15 05:54:51;;;;;;;3.28;2.70;;;;;;;;;;5031699;28;20049;-69
2022/05/15 05:57:18;;;;;;;4.25;2.80;;;;;;;;;;5031926;28;20323;-69
2022/05/15 05:59:44;;;;;;;4.20;2.70;;;;;;;;;;5031701;28;20057;-69
2022/05/15 06:02:11;;;;;;;6.45;3.20;;;;;;;;;;5031464;28;20557;-69
2022/05/15 06:04:41;;;;;;;3.92;2.67;;;;;;;;;;5031727;28;20049;-69
2022/05/15 06:07:16;;;;;;;3.50;2.78;;;;;;;;;;5031454;28;20062;-69
2022/05/15 06:09:44;;;;;;;5.55;3.05;;;;;;;;;;5031524;28;20050;-69
2022/05/15 06:12:13;;;;;;;5.63;2.78;;;;;;;;;;5030254;28;20542;-69
2022/05/15 06:14:40;;;;;;;5.05;2.85;;;;;;;;;;5031639;28;20123;-70
2022/05/15 06:17:06;;;;;;;5.72;3.03;;;;;;;;;;5031430;28;20543;-69
2022/05/15 06:19:33;;;;;;;5.82;2.60;;;;;;;;;;5031539;28;20060;-69
2022/05/15 06:22:00;;;;;;;5.25;2.83;;;;;;;;;;5029994;28;20041;-69
2022/05/15 06:24:27;;;;;;;6.32;3.22;;;;;;;;;;5031420;28;20136;-69
2022/05/15 06:26:54;;;;;;;4.30;2.30;;;;;;;;;;5031286;28;20111;-70
2022/05/15 06:29:21;;;;;;;2.83;2.58;;;;;;;;;;5031463;28;20099;-69
2022/05/15 06:31:47;;;;;;;4.95;2.50;;;;;;;;;;5032689;28;20468;-69
2022/05/15 06:34:14;;;;;;;3.80;2.55;;;;;;;;;;5035198;28;20128;-69
2022/05/15 06:36:41;;;;;;;4.38;2.40;;;;;;;;;;5035070;28;20107;-69
2022/05/15 06:39:08;;;;;;;6.85;3.28;;;;;;;;;;5035259;28;20075;-70
2022/05/15 06:41:35;;;;;;;4.90;2.35;;;;;;;;;;5035118;28;20045;-69
2022/05/15 06:44:01;;;;;;;5.47;2.15;;;;;;;;;;5034655;28;20046;-70
2022/05/15 06:46:28;;;;;;;5.75;2.30;;;;;;;;;;5035067;28;20061;-69
2022/05/15 06:48:55;;;;;;;4.38;2.10;;;;;;;;;;5034780;28;20057;-69
2022/05/15 06:51:22;;;;;;;2.75;2.35;;;;;;;;;;5034732;28;20484;-69
2022/05/15 06:53:48;;;;;;;3.03;2.33;;;;;;;;;;5034880;28;20049;-70
2022/05/15 06:59:02;;;;;;;3.60;2.17;;;;;;;;;;5034947;28;20053;-70
2022/05/15 07:01:29;;;;;;;3.42;2.10;;;;;;;;;;5035010;28;20053;-70
2022/05/15 07:03:56;;;;;;;3.70;2.42;;;;;;;;;;5034648;28;20053;-70
2022/05/15 07:06:22;;;;;;;6.22;2.20;;;;;;;;;;5034748;28;20076;-69
2022/05/15 07:08:49;;;;;;;4.35;2.25;;;;;;;;;;5034700;28;20053;-70
2022/05/15 07:11:16;;;;;;;2.45;2.15;;;;;;;;;;5034411;28;20045;-70
2022/05/15 07:13:42;;;;;;;4.18;2.20;;;;;;;;;;5034476;28;20053;-70
2022/05/15 07:16:10;;;;;;;3.97;1.90;;;;;;;;;;5034374;28;20049;-70
2022/05/15 07:18:38;;;;;;;5.03;2.33;;;;;;;;;;5034618;28;20054;-69
2022/05/15 07:21:06;;;;;;;4.13;1.80;;;;;;;;;;5034065;28;20504;-70
2022/05/15 07:23:32;;;;;;;6.00;2.40;;;;;;;;;;5034430;28;20045;-70
2022/05/15 07:25:59;;;;;;;6.78;3.45;;;;;;;;;;5034444;28;20455;-69
2022/05/15 07:28:26;;;;;;;2.92;1.98;;;;;;;;;;5034341;28;20108;-69
2022/05/15 07:30:52;;;;;;;3.40;2.60;;;;;;;;;;5034315;28;20059;-69
2022/05/15 07:33:24;;;;;;;2.85;1.70;;;;;;;;;;5034183;28;20088;-69
2022/05/15 07:35:51;;;;;;;2.80;1.92;;;;;;;;;;5034032;28;20053;-69
2022/05/15 07:38:17;;;;;;;3.78;1.80;;;;;;;;;;5034111;28;20053;-69
2022/05/15 07:40:44;;;;;;;3.97;2.15;;;;;;;;;;5033914;28;20056;-69
2022/05/15 07:43:12;;;;;;;3.13;1.90;;;;;;;;;;5032989;28;20103;-69
2022/05/15 07:45:39;;;;;;;2.72;1.70;;;;;;;;;;5033652;28;20108;-69
2022/05/15 07:48:06;;;;;;;4.50;2.60;;;;;;;;;;5033909;28;20058;-69
2022/05/15 07:50:34;;;;;;;3.85;2.03;;;;;;;;;;5034078;28;20050;-69
2022/05/15 07:53:01;;;;;;;3.85;2.08;;;;;;;;;;5033734;28;20042;-68
2022/05/15 07:55:28;;;;;;;3.20;2.08;;;;;;;;;;5033808;28;20057;-68
2022/05/15 07:57:54;;;;;;;3.38;2.00;;;;;;;;;;5033866;28;20486;-69
2022/05/15 08:00:21;;;;;;;2.97;2.00;;;;;;;;;;5033852;28;20466;-69
2022/05/15 08:02:48;;;;;;;4.70;1.90;;;;;;;;;;5033379;28;20088;-69
2022/05/15 08:08:10;;;;;;;5.50;2.35;;;;;;;;;;5033453;28;20053;-68
2022/05/15 08:10:44;;;;;;;4.65;2.05;;;;;;;;;;5033424;28;20060;-68
2022/05/15 08:13:15;;;;;;;3.45;2.53;;;;;;;;;;5033481;28;20091;-69
2022/05/15 08:15:42;;;;;;;3.42;2.03;;;;;;;;;;5032450;28;20112;-69
2022/05/15 08:23:44;;;;;;;5.43;2.17;;;;;;;;;;5033818;28;20401;-69
2022/05/15 08:26:11;;;;;;;3.55;1.95;;;;;;;;;;5048698;28;20049;-69
2022/05/15 08:28:38;;;;;;;5.90;2.20;;;;;;;;;;5033445;28;20049;-69
2022/05/15 08:31:06;;;;;;;3.63;2.38;;;;;;;;;;5032942;28;20053;-69
2022/05/15 08:33:34;;;;;;;3.50;1.90;;;;;;;;;;5033157;28;20056;-70
2022/05/15 08:36:01;;;;;;;4.40;1.55;;;;;;;;;;5033050;28;20049;-69
2022/05/15 08:38:28;;;;;;;5.25;1.95;;;;;;;;;;5033078;28;20060;-69
2022/05/15 08:41:01;;;;;;;2.58;1.83;;;;;;;;;;5032943;28;20057;-69
2022/05/15 08:43:44;;;;;;;3.00;1.90;;;;;;;;;;5032584;28;20053;-68
2022/05/15 08:46:29;;;;;;;1.75;1.65;;;;;;;;;;5032930;28;20103;-69
2022/05/15 08:49:19;;;;;;;2.70;1.65;;;;;;;;;;5032643;28;20049;-69
2022/05/15 08:52:17;;;;;;;7.22;1.92;;;;;;;;;;5027949;28;20524;-69
2022/05/15 08:54:52;;;;;;;6.00;3.40;;;;;;;;;;5023594;28;20053;-69
2022/05/15 08:57:33;;;;;;;4.68;2.10;;;;;;;;;;5031813;28;20471;-69
2022/05/15 09:00:00;;;;;;;3.83;1.77;;;;;;;;;;5033109;28;20049;-69
2022/05/15 09:02:27;;;;;;;3.35;2.00;;;;;;;;;;5014663;28;20092;-70
2022/05/15 09:04:54;;;;;;;3.33;1.67;;;;;;;;;;5032691;28;20050;-69
2022/05/15 09:07:42;;;;;;;3.15;1.85;;;;;;;;;;5032454;28;20049;-69
2022/05/15 09:10:23;;;;;;;2.78;1.50;;;;;;;;;;5032460;28;20041;-68
2022/05/15 09:13:32;;;;;;;5.85;1.65;;;;;;;;;;5046643;28;20052;-69
2022/05/15 09:16:01;;;;;;;3.67;1.80;;;;;;;;;;5031291;28;20060;-69
2022/05/15 09:18:28;;;;;;;4.35;1.35;;;;;;;;;;5032137;28;20084;-69
2022/05/15 09:21:00;;;;;;;4.68;1.50;;;;;;;;;;5032003;28;20053;-69
2022/05/15 09:23:34;;;;;;;2.10;1.70;;;;;;;;;;5032249;28;20047;-70
2022/05/15 09:26:27;;;;;;;2.85;1.50;;;;;;;;;;5032383;28;20120;-70
2022/05/15 09:29:00;;;;;;;5.95;1.42;;;;;;;;;;5032693;28;20049;-69
2022/05/15 09:31:42;;;;;;;2.88;1.67;;;;;;;;;;5031787;28;20049;-69
2022/05/15 09:34:30;;;;;;;2.67;1.42;;;;;;;;;;5032279;28;20049;-69
2022/05/15 09:38:27;;;;;;;4.80;1.33;;;;;;;;;;5047254;28;20061;-70
2022/05/15 09:39:45;;;;;;;7.30;1.42;;;;;;;;;;5031868;28;20423;-69
2022/05/15 09:45:16;;;;;;;4.32;1.40;;;;;;;;;;5031361;28;20508;-69
2022/05/15 09:47:46;;;;;;;2.33;1.23;;;;;;;;;;5032257;28;20107;-69
2022/05/15 09:50:38;;;;;;;2.83;1.38;;;;;;;;;;5046910;28;20050;-70
2022/05/15 09:53:10;;;;;;;3.90;1.20;;;;;;;;;;5031880;28;20467;-71
2022/05/15 09:55:37;;;;;;;3.47;2.05;;;;;;;;;;5032526;28;20053;-70
2022/05/15 09:58:06;;;;;;;2.90;1.02;;;;;;;;;;5032021;28;20049;-70
2022/05/15 10:00:35;;;;;;;4.00;1.33;;;;;;;;;;5030621;28;20443;-71
2022/05/15 10:03:16;;;;;;;2.20;1.02;;;;;;;;;;5030674;28;20049;-71
2022/05/15 10:05:42;;;;;;;4.38;1.75;;;;;;;;;;5031670;28;20053;-70
2022/05/15 10:08:30;;;;;;;2.53;1.13;;;;;;;;;;5034279;28;20053;-71
2022/05/15 10:11:04;;;;;;;4.28;1.40;;;;;;;;;;5035537;28;20050;-70
2022/05/15 10:13:43;;;;;;;2.80;1.25;;;;;;;;;;5034724;28;20042;-71
2022/05/15 10:16:13;;;;;;;4.57;1.40;;;;;;;;;;5034643;28;20448;-70
2022/05/15 10:19:12;;;;;;;4.85;1.38;;;;;;;;;;5034421;28;20085;-70
2022/05/15 10:21:43;;;;;;;2.72;0.93;;;;;;;;;;5035315;28;20054;-70
2022/05/15 10:24:30;;;;;;;2.20;1.10;;;;;;;;;;5050932;28;20420;-70
2022/05/15 10:27:23;;;;;;;2.88;1.27;;;;;;;;;;5034171;28;20053;-71
2022/05/15 10:30:03;;;;;;;2.30;1.23;;;;;;;;;;5017765;28;20049;-70
2022/05/15 10:32:45;;;;;;;1.60;0.90;;;;;;;;;;5035317;28;20053;-71
2022/05/15 10:35:14;;;;;;;2.88;1.08;;;;;;;;;;5034272;28;20053;-71
2022/05/15 10:37:53;;;;;;;4.03;1.55;;;;;;;;;;5034184;28;20049;-71
2022/05/15 10:40:34;;;;;;;2.08;1.00;;;;;;;;;;5035193;28;20072;-71
2022/05/15 10:43:21;;;;;;;1.60;1.50;;;;;;;;;;5033959;28;20045;-70
2022/05/15 10:45:53;;;;;;;1.63;0.93;;;;;;;;;;5034731;28;20049;-70
2022/05/15 10:48:57;;;;;;;1.50;1.23;;;;;;;;;;5033628;28;20427;-71
2022/05/15 10:51:36;;;;;;;3.85;1.30;;;;;;;;;;5034155;28;20205;-71
2022/05/15 10:57:39;;;;;;;2.45;1.23;;;;;;;;;;5034836;28;20054;-71
2022/05/15 11:00:08;;;;;;;4.70;1.48;;;;;;;;;;5029330;28;20095;-71
2022/05/15 11:02:37;;;;;;;2.05;1.13;;;;;;;;;;5034735;28;20045;-71
2022/05/15 11:05:16;;;;;;;4.70;1.30;;;;;;;;;;5035216;28;20076;-72
2022/05/15 11:07:57;;;;;;;3.97;1.85;;;;;;;;;;5034676;28;20054;-70
2022/05/15 11:10:33;;;;;;;4.13;1.20;;;;;;;;;;5033606;28;20057;-69
2022/05/15 11:13:03;;;;;;;5.50;1.73;;;;;;;;;;5033586;28;20496;-69
2022/05/15 11:15:33;;;;;;;2.72;0.85;;;;;;;;;;5033328;28;20053;-69
2022/05/15 11:18:15;;;;;;;3.78;1.33;;;;;;;;;;5033317;28;20054;-69
2022/05/15 11:20:45;;;;;;;3.17;1.08;;;;;;;;;;5033456;28;20049;-69
2022/05/15 11:23:14;;;;;;;5.57;1.30;;;;;;;;;;5033539;28;20049;-69
2022/05/15 11:26:02;;;;;;;5.28;1.25;;;;;;;;;;5033168;28;20049;-69
2022/05/15 11:28:30;;;;;;;2.30;1.42;;;;;;;;;;5049808;28;20053;-69
2022/05/15 11:31:12;;;;;;;3.72;1.33;;;;;;;;;;5034186;28;20050;-69
2022/05/15 11:33:51;;;;;;;4.50;1.20;;;;;;;;;;5033720;28;20045;-69
2022/05/15 11:36:21;;;;;;;2.45;1.30;;;;;;;;;;5034255;28;20050;-69
2022/05/15 11:39:07;;;;;;;5.50;1.25;;;;;;;;;;5034293;28;20053;-70
2022/05/15 11:41:33;;;;;;;2.15;1.10;;;;;;;;;;5034134;28;20053;-69
2022/05/15 11:44:01;;;;;;;2.13;1.05;;;;;;;;;;5033274;28;20041;-69
2022/05/15 11:46:45;;;;;;;2.72;1.30;;;;;;;;;;5033999;28;20104;-69
2022/05/15 11:49:52;;;;;;;3.22;1.40;;;;;;;;;;5034117;28;20046;-69
2022/05/15 11:52:20;;;;;;;2.22;1.40;;;;;;;;;;5032535;28;20401;-70
2022/05/15 11:54:49;;;;;;;3.33;1.80;;;;;;;;;;5032874;28;20046;-70
2022/05/15 11:57:36;;;;;;;4.72;1.33;;;;;;;;;;5033606;28;20049;-70
2022/05/15 12:00:05;;;;;;;2.55;1.05;;;;;;;;;;5033877;28;20049;-69
2022/05/15 12:02:35;;;;;;;2.75;1.00;;;;;;;;;;5032334;28;20107;-69
2022/05/15 12:05:22;;;;;;;3.60;1.20;;;;;;;;;;5033747;28;20049;-70
2022/05/15 12:07:55;;;;;;;3.63;1.50;;;;;;;;;;5033485;28;20050;-69
2022/05/15 12:10:33;;;;;;;2.20;1.05;;;;;;;;;;5033328;28;20053;-70
2022/05/15 12:13:36;;;;;;;4.15;1.40;;;;;;;;;;5033293;28;20046;-70
2022/05/15 12:16:23;;;;;;;2.50;1.30;;;;;;;;;;5031986;28;20049;-69
2022/05/15 12:19:05;;;;;;;3.72;1.38;;;;;;;;;;5032094;28;20099;-70
2022/05/15 12:21:37;;;;;;;2.88;1.10;;;;;;;;;;5033156;28;20049;-70
2022/05/15 12:27:16;;;;;;;1.70;1.13;;;;;;;;;;5032347;28;20053;-69
2022/05/15 12:29:57;;;;;;;6.07;1.13;;;;;;;;;;5032835;28;20099;-70
2022/05/15 12:32:47;;;;;;;2.97;1.10;;;;;;;;;;5032976;28;20053;-70
2022/05/15 12:35:24;;;;;;;1.42;0.80;;;;;;;;;;5032140;28;20053;-70
2022/05/15 12:37:58;;;;;;;4.82;1.63;;;;;;;;;;5033165;28;20053;-69
2022/05/15 12:40:31;;;;;;;1.80;1.27;;;;;;;;;;5032994;28;20463;-70
2022/05/15 12:42:58;;;;;;;3.42;1.27;;;;;;;;;;5032562;28;20045;-70
2022/05/15 12:45:25;;;;;;;2.85;1.00;;;;;;;;;;5030823;28;20574;-70
2022/05/15 12:48:09;;;;;;;2.35;1.13;;;;;;;;;;5032560;28;20547;-71
2022/05/15 12:51:05;;;;;;;1.77;1.30;;;;;;;;;;5032846;28;20458;-69
2022/05/15 12:53:37;;;;;;;1.50;1.05;;;;;;;;;;5032663;28;20511;-70
2022/05/15 12:56:11;;;;;;;;;;;;;;;;;;5032302;28;20071;-71
2022/05/15 12:58:38;;;;;;;2.60;1.05;;;;;;;;;;5032507;28;19920;-70
2022/05/15 13:01:05;;;;;;;1.02;0.98;;;;;;;;;;5032453;28;20053;-71
2022/05/15 13:03:33;;;;;;;4.28;1.60;;;;;;;;;;5032457;28;20128;-70
2022/05/15 13:06:03;;;;;;;2.10;1.00;;;;;;;;;;5032438;28;20049;-70
2022/05/15 13:08:44;;;;;;;2.20;0.95;;;;;;;;;;5032654;28;20543;-71
2022/05/15 13:11:22;;;;;;;1.33;1.10;;;;;;;;;;5032502;28;20096;-71
2022/05/15 13:13:51;;;;;;;2.90;1.20;;;;;;;;;;5032280;28;20041;-70
2022/05/15 13:16:21;;;;;;;4.82;1.27;;;;;;;;;;5031081;28;20058;-70
2022/05/15 13:18:49;;;;;;;1.67;0.80;;;;;;;;;;5031209;28;20138;-71
2022/05/15 13:21:31;;;;;;;4.03;1.17;;;;;;;;;;5031178;28;20053;-71
2022/05/15 13:23:59;;;;;;;3.33;1.05;;;;;;;;;;5047322;28;20107;-71
2022/05/15 13:26:29;;;;;;;7.35;1.83;;;;;;;;;;5047507;28;20095;-71
2022/05/15 13:28:59;;;;;;;1.23;0.98;;;;;;;;;;5031073;28;20459;-71
2022/05/15 13:31:26;;;;;;;2.78;1.25;;;;;;;;;;5031224;28;20045;-71
2022/05/15 13:33:54;;;;;;;2.78;1.27;;;;;;;;;;5031236;28;20048;-71
2022/05/15 13:36:21;;;;;;;2.80;1.52;;;;;;;;;;5031215;28;20049;-72
2022/05/15 13:44:35;;;;;;;3.75;1.15;;;;;;;;;;5030431;28;20369;-71
2022/05/15 13:47:07;;;;;;;1.45;1.10;;;;;;;;;;5031810;28;20065;-72
2022/05/15 13:49:52;;;;;;;2.35;1.20;;;;;;;;;;5032002;28;20053;-71
2022/05/15 13:52:25;;;;;;;3.58;1.05;;;;;;;;;;5031593;28;20505;-70
2022/05/15 13:54:52;;;;;;;2.50;1.25;;;;;;;;;;5030785;28;20050;-70
2022/05/15 13:57:18;;;;;;;5.07;1.35;;;;;;;;;;5031717;28;20054;-71
2022/05/15 13:59:51;;;;;;;3.97;1.30;;;;;;;;;;5031672;28;20504;-71
2022/05/15 14:02:23;;;;;;;3.38;1.00;;;;;;;;;;5031477;28;20500;-71
2022/05/15 14:04:59;;;;;;;3.45;1.23;;;;;;;;;;5031730;28;20049;-71
2022/05/15 14:07:28;;;;;;;4.10;1.33;;;;;;;;;;5031352;28;20051;-71
2022/05/15 14:09:58;;;;;;;2.65;1.02;;;;;;;;;;5031780;28;20049;-71
2022/05/15 14:12:42;;;;;;;3.65;0.95;;;;;;;;;;5031563;28;20053;-71
2022/05/15 14:15:27;;;;;;;2.38;1.20;;;;;;;;;;5031709;28;20053;-72
2022/05/15 14:17:58;;;;;;;3.15;1.08;;;;;;;;;;5033037;28;20489;-71
2022/05/15 14:20:29;;;;;;;3.47;1.42;;;;;;;;;;5030592;28;20053;-71
2022/05/15 14:22:56;;;;;;;3.00;0.93;;;;;;;;;;5046514;28;20045;-71
2022/05/15 14:25:23;;;;;;;4.57;1.70;;;;;;;;;;5046708;28;20064;-71
2022/05/15 14:27:49;;;;;;;3.05;1.10;;;;;;;;;;5031482;28;20103;-70
2022/05/15 14:30:16;;;;;;;1.95;1.10;;;;;;;;;;5031789;28;20057;-71
2022/05/15 14:32:58;;;;;;;2.50;1.40;;;;;;;;;;5031307;28;20463;-71
2022/05/15 14:35:29;;;;;;;;;;;;;;;;;;5031954;28;20053;-71
2022/05/15 14:37:56;;;;;;;2.22;1.02;;;;;;;;;;5031363;28;19929;-71
2022/05/15 14:40:22;;;;;;;1.67;1.10;;;;;;;;;;5031284;28;20523;-71
2022/05/15 14:42:49;;;;;;;2.33;1.40;;;;;;;;;;5031182;28;20107;-71
2022/05/15 14:45:19;;;;;;;2.65;1.30;;;;;;;;;;5031114;28;20045;-70
2022/05/15 14:47:49;;;;;;;2.00;1.20;;;;;;;;;;5031205;28;20080;-70
2022/05/15 14:50:15;;;;;;;1.45;0.90;;;;;;;;;;5031287;28;20176;-71
2022/05/15 14:52:42;;;;;;;2.15;1.20;;;;;;;;;;5031174;28;20135;-71
2022/05/15 14:55:09;;;;;;;3.22;1.30;;;;;;;;;;5035129;28;20099;-71
2022/05/15 14:57:38;;;;;;;14.18;1.95;;;;;;;;;;5034979;28;20046;-71
2022/05/15 15:00:05;;;;;;;3.08;1.20;;;;;;;;;;5050345;28;20103;-70
2022/05/15 15:02:34;;;;;;;1.25;1.10;;;;;;;;;;5050063;28;20175;-71
2022/05/15 15:05:01;;;;;;;2.92;1.20;;;;;;;;;;5034713;28;20055;-70
2022/05/15 15:07:27;;;;;;;2.20;1.20;;;;;;;;;;5034725;28;20057;-71
2022/05/15 15:09:54;;;;;;;2.03;1.10;;;;;;;;;;5035126;28;20093;-71
2022/05/15 15:12:21;;;;;;;3.38;1.70;;;;;;;;;;5034541;28;20103;-70
2022/05/15 15:14:48;;;;;;;2.58;1.02;;;;;;;;;;5034964;28;20053;-71
2022/05/15 15:17:15;;;;;;;3.40;1.10;;;;;;;;;;5034945;28;20053;-70
2022/05/15 15:19:41;;;;;;;3.33;1.55;;;;;;;;;;5034741;28;20049;-71
2022/05/15 15:22:08;;;;;;;1.85;1.10;;;;;;;;;;5034544;28;20045;-71
2022/05/15 15:24:35;;;;;;;3.58;1.10;;;;;;;;;;5034507;28;20098;-71
2022/05/15 15:27:02;;;;;;;3.22;1.83;;;;;;;;;;5034311;28;20049;-71
2022/05/15 15:29:29;;;;;;;1.33;1.10;;;;;;;;;;5034557;28;20050;-72
2022/05/15 15:31:55;;;;;;;1.98;1.05;;;;;;;;;;5034140;28;20061;-71
2022/05/15 15:34:22;;;;;;;2.25;1.30;;;;;;;;;;5034498;28;20069;-70